Saint Lawrence, South Dakota
Current Conditions -  °F | °C
As of 8:55 PM on Friday 28 Nov 2014 (Local Time) from KHON Reporting Station
Clear Clear  
Wind Chill: 20°   Ceiling: Unl
Heat Index: 28°   Visibility: 7mi
Dew Point: 25°   Wind: 8mph
Humidity: 88%   Direction: 150°SSE
Pressure: 29.57"   Gusts: NA
Location:  44.52°N, 98.94°W
Report Text: KHON 290255Z AUTO 15007KT 7SM CLR M02/M04 A2957 RMK AO2 SLP029 T10221039 58024
Loading
Personal Weather Stations






























Interactive Weather Map New forecast layout! Learn more

10-Day Weather Forecast

Advertisements
Track Severe Weather on mobile